createdAt,value
2022-10-11T00:00:50.679Z,78.65
2022-10-11T00:01:50.648Z,78.77
2022-10-11T00:02:50.666Z,78.78
2022-10-11T00:03:50.664Z,78.91
2022-10-11T00:04:50.635Z,79.02
2022-10-11T00:05:50.633Z,79.12
2022-10-11T00:06:50.641Z,79.25
2022-10-11T00:07:50.609Z,79.34
2022-10-11T00:08:50.603Z,79.47
2022-10-11T00:09:50.579Z,79.63
2022-10-11T00:10:50.565Z,79.78
2022-10-11T00:11:50.567Z,79.83
2022-10-11T00:12:50.544Z,79.94
2022-10-11T00:13:50.580Z,79.99
2022-10-11T00:14:50.523Z,80.10
2022-10-11T00:15:50.507Z,80.22
2022-10-11T00:16:50.516Z,80.35
2022-10-11T00:17:50.484Z,80.40
2022-10-11T00:18:50.485Z,80.46
2022-10-11T00:19:50.451Z,80.64
2022-10-11T00:20:50.433Z,80.77
2022-10-11T00:21:50.426Z,80.77
2022-10-11T00:22:50.425Z,80.76
2022-10-11T00:23:50.415Z,80.84
2022-10-11T00:24:50.404Z,80.97
2022-10-11T00:25:50.390Z,80.94
2022-10-11T00:26:50.378Z,81.10
2022-10-11T00:27:50.352Z,81.15
2022-10-11T00:28:50.415Z,81.24
2022-10-11T00:29:50.330Z,81.24
2022-10-11T00:30:50.322Z,81.33
2022-10-11T00:31:50.309Z,81.45
2022-10-11T00:32:50.291Z,81.44
2022-10-11T00:33:50.300Z,81.50
2022-10-11T00:34:50.273Z,81.51
2022-10-11T00:35:50.257Z,81.53
2022-10-11T00:36:50.262Z,81.59
2022-10-11T00:37:50.226Z,81.62
2022-10-11T00:38:50.246Z,81.68
2022-10-11T00:39:50.215Z,81.70
2022-10-11T00:40:50.195Z,81.72
2022-10-11T00:41:50.186Z,81.77
2022-10-11T00:42:50.175Z,81.88
2022-10-11T00:43:50.186Z,81.93
2022-10-11T00:44:50.156Z,82.01
2022-10-11T00:45:50.144Z,82.03
2022-10-11T00:46:52.668Z,82.02
2022-10-11T00:47:51.125Z,82.13
2022-10-11T00:48:50.135Z,82.13
2022-10-11T00:49:50.098Z,82.25
2022-10-11T00:50:50.075Z,82.32
2022-10-11T00:51:50.072Z,82.35
2022-10-11T00:52:50.068Z,82.49
2022-10-11T00:53:50.065Z,82.49
2022-10-11T00:54:50.044Z,82.52
2022-10-11T00:55:50.026Z,82.55
2022-10-11T00:56:50.036Z,82.62
2022-10-11T00:57:50.005Z,82.68
2022-10-11T00:58:50.006Z,82.76
2022-10-11T00:59:49.977Z,82.93
2022-10-11T01:00:49.970Z,82.95
2022-10-11T01:01:50.021Z,83.02
2022-10-11T01:02:49.949Z,83.05
2022-10-11T01:03:49.947Z,83.20
2022-10-11T01:05:01.018Z,83.29
2022-10-11T01:05:50.909Z,83.32
2022-10-11T01:06:49.909Z,83.47
2022-10-11T01:07:49.893Z,83.56
2022-10-11T01:08:49.884Z,83.71
2022-10-11T01:09:49.859Z,83.72
2022-10-11T01:10:49.847Z,83.81
2022-10-11T01:11:49.846Z,83.85
2022-10-11T01:12:49.836Z,83.87
2022-10-11T01:13:49.833Z,83.87
2022-10-11T01:14:49.801Z,83.86
2022-10-11T01:15:49.797Z,83.83
2022-10-11T01:16:49.806Z,83.87
2022-10-11T01:17:49.765Z,83.86
2022-10-11T01:18:49.785Z,83.86
2022-10-11T01:19:49.738Z,83.87
2022-10-11T01:20:49.726Z,83.85
2022-10-11T01:21:49.719Z,83.88
2022-10-11T01:22:49.723Z,83.84
2022-10-11T01:23:49.711Z,83.91
2022-10-11T01:24:49.700Z,83.88
2022-10-11T01:25:49.672Z,83.92
2022-10-11T01:26:49.679Z,84.08
2022-10-11T01:27:49.648Z,84.11
2022-10-11T01:28:49.749Z,84.14
2022-10-11T01:29:49.627Z,84.10
2022-10-11T01:30:49.627Z,84.17
2022-10-11T01:31:49.604Z,84.18
2022-10-11T01:32:49.590Z,84.29
2022-10-11T01:33:49.600Z,84.33
2022-10-11T01:34:49.600Z,84.63
2022-10-11T01:35:49.566Z,84.64
2022-10-11T01:36:49.568Z,84.59
2022-10-11T01:37:49.540Z,84.56
2022-10-11T01:38:49.541Z,84.55
2022-10-11T01:39:49.533Z,84.59
2022-10-11T01:40:49.503Z,84.67
2022-10-11T01:41:49.482Z,84.71
2022-10-11T01:42:49.500Z,85.09
2022-10-11T01:43:49.487Z,85.06
2022-10-11T01:44:49.453Z,85.09
2022-10-11T01:45:49.438Z,85.13
2022-10-11T01:46:49.451Z,85.21
2022-10-11T01:47:49.420Z,85.22
2022-10-11T01:48:49.418Z,85.22
2022-10-11T01:49:49.409Z,85.27
2022-10-11T01:50:49.393Z,85.37
2022-10-11T01:51:49.374Z,85.40
2022-10-11T01:52:49.365Z,85.44
2022-10-11T01:53:49.360Z,85.46
2022-10-11T01:55:08.512Z,85.44
2022-10-11T01:55:50.321Z,85.22
2022-10-11T01:56:49.340Z,85.18
2022-10-11T01:57:49.301Z,85.14
2022-10-11T01:58:49.304Z,85.00
2022-10-11T01:59:49.279Z,84.92
2022-10-11T02:00:49.270Z,84.91
2022-10-11T02:01:49.297Z,84.92
2022-10-11T02:02:49.241Z,84.92
2022-10-11T02:03:49.248Z,84.92
2022-10-11T02:04:49.221Z,84.89
2022-10-11T02:05:49.214Z,84.91
2022-10-11T02:06:49.211Z,85.03
2022-10-11T02:07:49.182Z,85.04
2022-10-11T02:08:49.186Z,85.03
2022-10-11T02:09:49.182Z,85.25
2022-10-11T02:10:49.149Z,85.23
2022-10-11T02:11:49.140Z,85.45
2022-10-11T02:12:49.129Z,85.55
2022-10-11T02:13:49.131Z,85.58
2022-10-11T02:14:49.112Z,85.61
2022-10-11T02:15:49.101Z,85.53
2022-10-11T02:16:49.102Z,85.57
2022-10-11T02:17:49.059Z,85.63
2022-10-11T02:18:49.082Z,85.63
2022-10-11T02:19:49.038Z,85.72
2022-10-11T02:20:49.042Z,85.72
2022-10-11T02:21:49.021Z,85.78
2022-10-11T02:22:49.022Z,85.83
2022-10-11T02:23:48.999Z,85.89
2022-10-11T02:24:49.005Z,85.92
2022-10-11T02:25:48.973Z,85.95
2022-10-11T02:26:48.998Z,85.95
2022-10-11T02:27:48.952Z,85.94
2022-10-11T02:28:49.043Z,85.93
2022-10-11T02:29:48.932Z,85.92
2022-10-11T02:30:48.933Z,85.94
2022-10-11T02:31:48.914Z,85.93
2022-10-11T02:32:48.904Z,85.95
2022-10-11T02:33:48.916Z,85.95
2022-10-11T02:34:48.889Z,85.96
2022-10-11T02:35:48.864Z,85.98
2022-10-11T02:36:48.874Z,85.97
2022-10-11T02:37:48.832Z,86.00
2022-10-11T02:38:48.845Z,86.02
2022-10-11T02:39:48.825Z,86.02
2022-10-11T02:40:48.808Z,86.01
2022-10-11T02:41:48.783Z,85.99
2022-10-11T02:42:48.787Z,85.94
2022-10-11T02:43:48.785Z,85.95
2022-10-11T02:44:48.755Z,85.92
2022-10-11T02:45:48.756Z,85.95
2022-10-11T02:46:48.755Z,85.91
2022-10-11T02:47:48.724Z,85.91
2022-10-11T02:48:48.733Z,85.93
2022-10-11T02:49:48.705Z,85.94
2022-10-11T02:50:48.695Z,85.95
2022-10-11T02:51:48.683Z,85.99
2022-10-11T02:52:48.672Z,86.04
2022-10-11T02:53:48.653Z,86.08
2022-10-11T02:54:48.658Z,86.18
2022-10-11T02:55:48.630Z,86.25
2022-10-11T02:56:48.634Z,86.35
2022-10-11T02:57:48.606Z,86.42
2022-10-11T02:58:48.613Z,86.51
2022-10-11T02:59:48.588Z,86.59
2022-10-11T03:00:48.574Z,86.62
2022-10-11T03:01:48.632Z,86.71
2022-10-11T03:02:48.554Z,86.75
2022-10-11T03:03:48.564Z,86.80
2022-10-11T03:04:48.524Z,86.87
2022-10-11T03:05:48.513Z,86.92
2022-10-11T03:06:48.524Z,87.01
2022-10-11T03:07:48.486Z,87.07
2022-10-11T03:08:48.480Z,87.12
2022-10-11T03:09:48.484Z,87.21
2022-10-11T03:10:48.453Z,87.28
2022-10-11T03:11:48.447Z,87.38
2022-10-11T03:12:48.436Z,87.41
2022-10-11T03:13:48.414Z,87.47
2022-10-11T03:14:48.425Z,87.51
2022-10-11T03:15:49.345Z,87.54
2022-10-11T03:16:48.733Z,87.63
2022-10-11T03:17:48.376Z,87.62
2022-10-11T03:18:48.362Z,87.66
2022-10-11T03:19:48.363Z,87.68
2022-10-11T03:20:48.340Z,87.74
2022-10-11T03:21:48.324Z,87.81
2022-10-11T03:22:48.326Z,87.95
2022-10-11T03:23:48.305Z,87.97
2022-10-11T03:24:48.293Z,87.96
2022-10-11T03:25:48.296Z,88.00
2022-10-11T03:26:48.286Z,88.06
2022-10-11T03:27:48.246Z,88.09
2022-10-11T03:28:48.329Z,88.08
2022-10-11T03:29:48.236Z,88.08
2022-10-11T03:30:48.226Z,88.09
2022-10-11T03:31:48.215Z,88.17
2022-10-11T03:32:48.206Z,88.21
2022-10-11T03:33:48.184Z,88.26
2022-10-11T03:34:48.165Z,88.21
2022-10-11T03:35:48.163Z,88.22
2022-10-11T03:36:48.193Z,88.28
2022-10-11T03:37:48.135Z,88.30
2022-10-11T03:38:48.127Z,88.31
2022-10-11T03:39:48.115Z,88.36
2022-10-11T03:40:48.109Z,88.44
2022-10-11T03:41:48.095Z,88.40
2022-10-11T03:42:48.097Z,88.38
2022-10-11T03:43:48.076Z,88.31
2022-10-11T03:44:48.065Z,88.29
2022-10-11T03:45:48.046Z,88.28
2022-10-11T03:46:48.055Z,88.29
2022-10-11T03:47:48.034Z,88.28
2022-10-11T03:48:48.017Z,88.29
2022-10-11T03:49:48.006Z,88.30
2022-10-11T03:50:47.995Z,88.28
2022-10-11T03:51:47.964Z,88.28
2022-10-11T03:52:47.988Z,88.27
2022-10-11T03:53:47.952Z,88.28
2022-10-11T03:54:47.951Z,88.26
2022-10-11T03:55:47.926Z,88.22
2022-10-11T03:56:47.938Z,88.17
2022-10-11T03:57:47.928Z,88.17
2022-10-11T03:58:47.903Z,88.15
2022-10-11T03:59:47.887Z,88.12
2022-10-11T04:00:47.866Z,88.08
2022-10-11T04:01:47.883Z,88.05
2022-10-11T04:02:47.849Z,88.01
2022-10-11T04:03:47.852Z,88.01
2022-10-11T04:04:47.826Z,87.99
2022-10-11T04:05:47.819Z,87.96
2022-10-11T04:06:47.817Z,87.96
2022-10-11T04:07:47.786Z,87.89
2022-10-11T04:08:47.799Z,87.75
2022-10-11T04:09:47.798Z,87.74
2022-10-11T04:10:47.785Z,87.73
2022-10-11T04:11:47.748Z,87.69
2022-10-11T04:12:47.748Z,87.67
2022-10-11T04:13:47.720Z,87.67
2022-10-11T04:14:47.721Z,87.63
2022-10-11T04:15:47.698Z,87.62
2022-10-11T04:16:47.699Z,87.60
2022-10-11T04:17:47.695Z,87.57
2022-10-11T04:18:47.685Z,87.53
2022-10-11T04:19:47.660Z,87.46
2022-10-11T04:20:47.637Z,87.40
2022-10-11T04:21:47.641Z,87.40
2022-10-11T04:22:47.617Z,87.37
2022-10-11T04:23:47.629Z,87.32
2022-10-11T04:24:47.594Z,87.32
2022-10-11T04:25:47.589Z,87.28
2022-10-11T04:26:47.590Z,87.23
2022-10-11T04:27:47.567Z,87.08
2022-10-11T04:28:47.611Z,87.05
2022-10-11T04:29:47.551Z,87.08
2022-10-11T04:30:47.525Z,87.00
2022-10-11T04:31:47.515Z,86.99
2022-10-11T04:32:47.499Z,86.97
2022-10-11T04:33:47.511Z,86.98
2022-10-11T04:34:47.472Z,86.95
2022-10-11T04:35:47.482Z,86.98
2022-10-11T04:36:49.934Z,87.01
2022-10-11T04:37:47.448Z,87.00
2022-10-11T04:38:47.448Z,87.00
2022-10-11T04:39:47.421Z,87.01
2022-10-11T04:40:47.410Z,87.00
2022-10-11T04:41:47.401Z,86.96
2022-10-11T04:42:47.403Z,86.98
2022-10-11T04:43:47.397Z,86.99
2022-10-11T04:44:47.372Z,86.99
2022-10-11T04:45:47.346Z,87.02
2022-10-11T04:46:47.363Z,87.10
2022-10-11T04:47:47.325Z,87.08
2022-10-11T04:48:47.330Z,87.07
2022-10-11T04:49:47.305Z,87.06
2022-10-11T04:50:47.292Z,87.06
2022-10-11T04:51:47.287Z,87.06
2022-10-11T04:52:47.273Z,87.06
2022-10-11T04:53:47.271Z,87.05
2022-10-11T04:54:47.242Z,87.08
2022-10-11T04:55:47.235Z,87.15
2022-10-11T04:56:47.230Z,87.24
2022-10-11T04:57:47.211Z,87.31
2022-10-11T04:58:47.212Z,87.39
2022-10-11T04:59:50.217Z,87.36
2022-10-11T05:00:47.189Z,87.33
2022-10-11T05:01:47.237Z,87.32
2022-10-11T05:02:47.153Z,87.29
2022-10-11T05:03:47.162Z,87.21
2022-10-11T05:04:47.130Z,87.20
2022-10-11T05:05:47.122Z,87.17
2022-10-11T05:06:47.131Z,87.13
2022-10-11T05:07:47.094Z,87.16
2022-10-11T05:08:47.104Z,87.14
2022-10-11T05:09:47.071Z,87.11
2022-10-11T05:10:47.059Z,87.14
2022-10-11T05:11:47.053Z,87.15
2022-10-11T05:12:47.033Z,87.17
2022-10-11T05:13:47.045Z,87.24
2022-10-11T05:14:47.015Z,87.33
2022-10-11T05:15:47.012Z,87.39
2022-10-11T05:16:47.013Z,87.47
2022-10-11T05:17:46.993Z,87.64
2022-10-11T05:18:46.981Z,87.72
2022-10-11T05:19:46.966Z,87.80
2022-10-11T05:20:46.941Z,87.85
2022-10-11T05:21:46.944Z,87.84
2022-10-11T05:22:46.921Z,87.97
2022-10-11T05:23:46.914Z,87.97
2022-10-11T05:24:46.913Z,88.04
2022-10-11T05:25:46.892Z,88.04
2022-10-11T05:26:46.874Z,88.05
2022-10-11T05:27:46.888Z,88.06
2022-10-11T05:28:46.922Z,88.04
2022-10-11T05:29:46.854Z,88.02
2022-10-11T05:30:46.832Z,88.01
2022-10-11T05:31:46.824Z,88.01
2022-10-11T05:32:46.802Z,87.99
2022-10-11T05:33:46.814Z,87.98
2022-10-11T05:34:46.782Z,87.98
2022-10-11T05:35:46.771Z,88.01
2022-10-11T05:36:46.776Z,88.03
2022-10-11T05:37:46.762Z,88.04
2022-10-11T05:38:46.734Z,88.06
2022-10-11T05:39:46.742Z,88.09
2022-10-11T05:40:46.721Z,88.11
2022-10-11T05:41:46.714Z,88.10
2022-10-11T05:42:46.695Z,88.14
2022-10-11T05:43:46.702Z,88.15
2022-10-11T05:44:46.676Z,88.22
2022-10-11T05:45:46.654Z,88.25
2022-10-11T05:46:46.645Z,88.25
2022-10-11T05:47:46.632Z,88.26
2022-10-11T05:48:46.635Z,88.22
2022-10-11T05:49:46.614Z,88.20
2022-10-11T05:50:46.595Z,88.14
2022-10-11T05:51:46.593Z,88.07
2022-10-11T05:52:46.573Z,87.96
2022-10-11T05:53:46.591Z,87.91
2022-10-11T05:54:46.561Z,87.93
2022-10-11T05:55:46.546Z,87.94
2022-10-11T05:56:46.534Z,87.97
2022-10-11T05:57:46.516Z,87.97
2022-10-11T05:58:46.519Z,87.98
2022-10-11T05:59:46.497Z,88.11
2022-10-11T06:00:46.485Z,88.14
2022-10-11T06:01:46.547Z,88.15
2022-10-11T06:02:46.465Z,88.13
2022-10-11T06:03:46.472Z,88.16
2022-10-11T06:04:46.435Z,88.22
2022-10-11T06:05:46.443Z,88.23
2022-10-11T06:06:46.409Z,88.27
2022-10-11T06:07:46.426Z,88.32
2022-10-11T06:08:46.409Z,88.35
2022-10-11T06:09:46.389Z,88.34
2022-10-11T06:10:46.364Z,88.31
2022-10-11T06:11:46.368Z,88.29
2022-10-11T06:12:46.345Z,88.30
2022-10-11T06:13:46.368Z,88.30
2022-10-11T06:14:46.316Z,88.20
2022-10-11T06:15:46.308Z,88.18
2022-10-11T06:16:46.298Z,88.16
2022-10-11T06:17:46.300Z,88.15
2022-10-11T06:18:46.308Z,88.17
2022-10-11T06:19:46.266Z,88.15
2022-10-11T06:20:46.257Z,88.16
2022-10-11T06:21:46.236Z,88.20
2022-10-11T06:22:46.226Z,88.20
2022-10-11T06:23:46.237Z,88.21
2022-10-11T06:24:46.206Z,88.19
2022-10-11T06:25:46.196Z,88.23
2022-10-11T06:26:46.182Z,88.21
2022-10-11T06:27:46.176Z,88.19
2022-10-11T06:28:46.204Z,88.20
2022-10-11T06:29:46.156Z,88.32
2022-10-11T06:30:46.135Z,88.33
2022-10-11T06:31:46.156Z,88.55
2022-10-11T06:32:46.115Z,88.57
2022-10-11T06:33:46.107Z,88.52
2022-10-11T06:34:46.087Z,88.61
2022-10-11T06:35:46.079Z,88.58
2022-10-11T06:36:46.068Z,88.54
2022-10-11T06:37:46.059Z,88.56
2022-10-11T06:38:46.062Z,88.62
2022-10-11T06:39:46.062Z,88.67
2022-10-11T06:40:46.020Z,88.66
2022-10-11T06:41:46.012Z,88.59
2022-10-11T06:42:45.999Z,88.52
2022-10-11T06:43:45.988Z,88.53
2022-10-11T06:44:45.989Z,88.52
2022-10-11T06:45:45.963Z,88.53
2022-10-11T06:46:45.959Z,88.51
2022-10-11T06:47:45.951Z,88.52
2022-10-11T06:48:45.943Z,88.53
2022-10-11T06:49:45.917Z,88.52
2022-10-11T06:50:59.545Z,88.49
2022-10-11T06:51:46.918Z,88.51
2022-10-11T06:52:45.888Z,88.55
2022-10-11T06:53:45.890Z,88.52
2022-10-11T06:54:45.871Z,88.49
2022-10-11T06:55:45.839Z,88.48
2022-10-11T06:56:45.833Z,88.49
2022-10-11T06:57:45.841Z,88.48
2022-10-11T06:58:45.829Z,88.42
2022-10-11T06:59:45.795Z,88.40
2022-10-11T07:00:45.856Z,88.39
2022-10-11T07:01:45.774Z,88.28
2022-10-11T07:02:45.761Z,88.15
2022-10-11T07:03:45.779Z,88.13
2022-10-11T07:04:45.748Z,87.86
2022-10-11T07:05:45.739Z,87.76
2022-10-11T07:06:45.718Z,87.75
2022-10-11T07:07:45.707Z,87.76
2022-10-11T07:08:45.704Z,87.56
2022-10-11T07:09:45.716Z,87.43
2022-10-11T07:10:45.679Z,87.24
2022-10-11T07:11:45.697Z,87.25
2022-10-11T07:12:45.657Z,87.27
2022-10-11T07:13:45.657Z,87.25
2022-10-11T07:14:45.658Z,87.07
2022-10-11T07:15:45.634Z,87.00
2022-10-11T07:16:45.599Z,86.91
2022-10-11T07:17:45.592Z,86.79
2022-10-11T07:18:45.600Z,86.33
2022-10-11T07:19:45.575Z,86.20
2022-10-11T07:20:45.551Z,86.12
2022-10-11T07:21:45.544Z,86.04
2022-10-11T07:22:45.544Z,85.98
2022-10-11T07:23:45.536Z,85.97
2022-10-11T07:24:45.531Z,85.92
2022-10-11T07:25:45.503Z,85.97
2022-10-11T07:26:45.494Z,86.04
2022-10-11T07:27:45.483Z,86.09
2022-10-11T07:28:45.545Z,86.02
2022-10-11T07:29:45.449Z,85.96
2022-10-11T07:30:45.439Z,85.83
2022-10-11T07:31:45.430Z,85.71
2022-10-11T07:32:45.411Z,85.68
2022-10-11T07:33:45.423Z,85.60
2022-10-11T07:34:45.379Z,85.71
2022-10-11T07:35:48.403Z,85.69
2022-10-11T07:36:45.363Z,85.74
2022-10-11T07:37:45.362Z,85.62
2022-10-11T07:38:45.373Z,85.33
2022-10-11T07:39:45.330Z,85.30
2022-10-11T07:40:45.337Z,85.28
2022-10-11T07:41:46.144Z,85.35
2022-10-11T07:42:45.300Z,85.22
2022-10-11T07:43:45.322Z,85.19
2022-10-11T07:44:45.272Z,85.15
2022-10-11T07:45:45.266Z,85.12
2022-10-11T07:46:45.247Z,85.09
2022-10-11T07:47:45.234Z,84.88
2022-10-11T07:48:45.243Z,84.82
2022-10-11T07:49:45.213Z,84.74
2022-10-11T07:50:45.196Z,84.56
2022-10-11T07:51:45.196Z,84.46
2022-10-11T07:52:45.204Z,84.36
2022-10-11T07:53:45.175Z,84.12
2022-10-11T07:54:45.167Z,83.96
2022-10-11T07:55:45.155Z,83.26
2022-10-11T07:56:45.131Z,83.34
2022-10-11T07:57:45.125Z,83.31
2022-10-11T07:58:45.126Z,83.24
2022-10-11T07:59:49.919Z,83.08
2022-10-11T08:00:46.118Z,82.61
2022-10-11T08:01:45.127Z,82.44
2022-10-11T08:02:45.077Z,82.14
2022-10-11T08:03:45.078Z,81.87
2022-10-11T08:04:45.044Z,81.67
2022-10-11T08:05:45.032Z,81.29
2022-10-11T08:06:46.265Z,80.93
2022-10-11T08:07:45.004Z,81.03
2022-10-11T08:08:45.004Z,81.47
2022-10-11T08:09:44.985Z,81.30
2022-10-11T08:10:44.965Z,81.19
2022-10-11T08:11:44.965Z,81.14
2022-10-11T08:12:44.945Z,81.34
2022-10-11T08:13:45.004Z,81.27
2022-10-11T08:14:44.926Z,81.22
2022-10-11T08:15:44.933Z,80.87
2022-10-11T08:16:44.908Z,80.15
2022-10-11T08:17:44.884Z,80.26
2022-10-11T08:18:44.887Z,79.84
2022-10-11T08:19:44.878Z,79.74
2022-10-11T08:20:44.853Z,79.96
2022-10-11T08:21:44.842Z,80.18
2022-10-11T08:22:44.843Z,79.72
2022-10-11T08:23:44.842Z,79.28
2022-10-11T08:24:44.817Z,78.93
2022-10-11T08:25:44.797Z,78.53
2022-10-11T08:26:44.783Z,78.25
2022-10-11T08:27:44.869Z,77.05
2022-10-11T08:28:44.843Z,76.87
2022-10-11T08:29:44.779Z,77.21
2022-10-11T08:30:44.757Z,76.29
2022-10-11T08:31:44.728Z,76.35
2022-10-11T08:32:44.719Z,76.56
2022-10-11T08:33:44.717Z,76.56
2022-10-11T08:34:44.699Z,76.76
2022-10-11T08:35:44.677Z,76.22
2022-10-11T08:36:44.729Z,76.07
2022-10-11T08:37:44.677Z,75.88
2022-10-11T08:38:44.667Z,76.18
2022-10-11T08:39:44.629Z,76.62
2022-10-11T08:40:44.618Z,76.89
2022-10-11T08:41:44.610Z,76.37
2022-10-11T08:42:44.594Z,75.27
2022-10-11T08:43:44.595Z,74.90
2022-10-11T08:45:10.477Z,75.24
2022-10-11T08:45:45.555Z,75.05
2022-10-11T08:46:44.559Z,74.97
2022-10-11T08:47:44.538Z,75.20
2022-10-11T08:48:44.552Z,75.02
2022-10-11T08:49:44.519Z,74.76
2022-10-11T08:50:44.498Z,74.77
2022-10-11T08:51:44.491Z,74.19
2022-10-11T08:52:44.497Z,74.06
2022-10-11T08:53:44.485Z,73.32
2022-10-11T08:54:44.458Z,72.51
2022-10-11T08:55:44.440Z,73.00
2022-10-11T08:56:44.432Z,73.25
2022-10-11T08:57:44.418Z,72.60
2022-10-11T08:58:44.414Z,72.81
2022-10-11T08:59:44.409Z,72.23
2022-10-11T09:00:44.391Z,70.72
2022-10-11T09:01:44.470Z,70.93
2022-10-11T09:03:06.780Z,70.99
2022-10-11T09:03:45.361Z,70.85
2022-10-11T09:04:44.351Z,70.12
2022-10-11T09:05:44.331Z,70.18
2022-10-11T09:06:44.320Z,70.67
2022-10-11T09:07:44.487Z,70.45
2022-10-11T09:08:44.313Z,69.88
2022-10-11T09:09:44.276Z,70.66
2022-10-11T09:10:44.269Z,69.61
2022-10-11T09:11:44.254Z,68.65
2022-10-11T09:12:44.253Z,68.31
2022-10-11T09:13:44.250Z,68.78
2022-10-11T09:14:44.243Z,68.53
2022-10-11T09:15:44.211Z,68.60
2022-10-11T09:16:44.226Z,69.02
2022-10-11T09:17:44.216Z,68.95
2022-10-11T09:18:44.203Z,69.09
2022-10-11T09:19:44.168Z,69.32
2022-10-11T09:20:44.161Z,69.38
2022-10-11T09:21:44.139Z,69.32
2022-10-11T09:22:44.134Z,69.30
2022-10-11T09:23:44.143Z,69.42
2022-10-11T09:24:44.112Z,69.32
2022-10-11T09:25:44.090Z,69.41
2022-10-11T09:26:44.096Z,69.19
2022-10-11T09:28:01.811Z,69.28
2022-10-11T09:28:45.182Z,69.13
2022-10-11T09:29:44.050Z,69.40
2022-10-11T09:30:44.033Z,69.39
2022-10-11T09:31:44.022Z,70.19
2022-10-11T09:32:44.022Z,69.81
2022-10-11T09:33:44.024Z,69.45
2022-10-11T09:34:43.998Z,69.31
2022-10-11T09:35:43.970Z,69.31
2022-10-11T09:36:43.962Z,69.57
2022-10-11T09:37:43.944Z,69.20
2022-10-11T09:38:43.964Z,69.11
2022-10-11T09:39:43.927Z,68.93
2022-10-11T09:40:43.917Z,69.00
2022-10-11T09:41:43.910Z,69.43
2022-10-11T09:42:43.896Z,69.07
2022-10-11T09:43:43.885Z,68.79
2022-10-11T09:44:43.895Z,69.62
2022-10-11T09:45:48.990Z,70.21
2022-10-11T09:46:44.844Z,69.56
2022-10-11T09:47:43.836Z,69.07
2022-10-11T09:48:43.836Z,69.81
2022-10-11T09:49:43.814Z,69.88
2022-10-11T09:50:43.809Z,70.03
2022-10-11T09:51:43.788Z,69.58
2022-10-11T09:52:43.779Z,68.94
2022-10-11T09:53:43.789Z,69.02
2022-10-11T09:54:43.758Z,69.12
2022-10-11T09:55:43.754Z,69.31
2022-10-11T09:56:43.738Z,70.07
2022-10-11T09:57:43.727Z,71.14
2022-10-11T09:58:43.713Z,70.89
2022-10-11T09:59:43.711Z,71.28
2022-10-11T10:00:43.687Z,69.81
2022-10-11T10:01:43.724Z,69.68
2022-10-11T10:02:43.663Z,69.51
2022-10-11T10:03:43.672Z,69.59
2022-10-11T10:04:43.648Z,70.26
2022-10-11T10:05:43.643Z,70.48
2022-10-11T10:06:43.629Z,69.62
2022-10-11T10:07:43.603Z,69.56
2022-10-11T10:08:43.611Z,69.27
2022-10-11T10:09:43.582Z,69.44
2022-10-11T10:10:43.571Z,69.30
2022-10-11T10:11:43.562Z,69.23
2022-10-11T10:12:43.554Z,69.25
2022-10-11T10:13:43.540Z,69.22
2022-10-11T10:14:43.544Z,69.13
2022-10-11T10:15:43.526Z,69.10
2022-10-11T10:16:43.513Z,69.68
2022-10-11T10:17:43.494Z,69.24
2022-10-11T10:18:43.503Z,69.20
2022-10-11T10:19:45.174Z,69.36
2022-10-11T10:20:43.458Z,69.82
2022-10-11T10:21:43.447Z,68.85
2022-10-11T10:22:43.432Z,69.06
2022-10-11T10:23:43.441Z,68.57
2022-10-11T10:24:43.405Z,68.45
2022-10-11T10:25:43.860Z,68.51
2022-10-11T10:26:43.419Z,68.63
2022-10-11T10:27:43.372Z,69.08
2022-10-11T10:28:43.423Z,69.15
2022-10-11T10:29:43.365Z,68.94
2022-10-11T10:30:43.344Z,69.10
2022-10-11T10:32:09.189Z,68.83
2022-10-11T10:32:48.369Z,68.11
2022-10-11T10:33:43.324Z,67.79
2022-10-11T10:34:43.297Z,67.58
2022-10-11T10:35:43.285Z,67.82
2022-10-11T10:36:43.279Z,68.06
2022-10-11T10:37:43.271Z,66.80
2022-10-11T10:38:43.268Z,66.98
2022-10-11T10:39:43.239Z,67.69
2022-10-11T10:40:43.235Z,68.42
2022-10-11T10:41:43.223Z,69.26
2022-10-11T10:42:43.213Z,69.18
2022-10-11T10:43:43.205Z,68.93
2022-10-11T10:44:43.188Z,69.24
2022-10-11T10:45:43.165Z,69.03
2022-10-11T10:46:43.155Z,69.08
2022-10-11T10:47:43.147Z,68.91
2022-10-11T10:49:19.161Z,68.65
2022-10-11T10:49:59.316Z,69.14
2022-10-11T10:50:44.108Z,69.54
2022-10-11T10:51:43.091Z,68.52
2022-10-11T10:52:43.085Z,68.88
2022-10-11T10:53:43.066Z,68.31
2022-10-11T10:54:43.075Z,66.62
2022-10-11T10:55:43.063Z,66.17
2022-10-11T10:56:43.037Z,65.92
2022-10-11T10:57:43.028Z,66.32
2022-10-11T10:58:43.029Z,66.50
2022-10-11T10:59:43.001Z,66.49
2022-10-11T11:00:42.989Z,66.87
2022-10-11T11:01:42.996Z,66.43
2022-10-11T11:02:43.082Z,66.88
2022-10-11T11:03:42.971Z,66.13
2022-10-11T11:04:42.940Z,65.88
2022-10-11T11:05:42.938Z,66.69
2022-10-11T11:06:42.924Z,66.65
2022-10-11T11:07:42.913Z,65.57
2022-10-11T11:08:42.901Z,65.04
2022-10-11T11:09:42.964Z,65.58
2022-10-11T11:10:42.869Z,65.55
2022-10-11T11:11:42.859Z,64.86
2022-10-11T11:12:42.854Z,64.56
2022-10-11T11:13:42.844Z,64.47
2022-10-11T11:14:42.830Z,65.22
2022-10-11T11:15:42.871Z,65.44
2022-10-11T11:16:42.812Z,66.26
2022-10-11T11:17:42.793Z,65.64
2022-10-11T11:18:42.781Z,65.00
2022-10-11T11:19:42.768Z,64.61
2022-10-11T11:20:42.779Z,65.13
2022-10-11T11:21:42.743Z,66.08
2022-10-11T11:22:42.743Z,64.80
2022-10-11T11:23:42.729Z,63.75
2022-10-11T11:24:42.724Z,63.24
2022-10-11T11:25:45.094Z,62.96
2022-10-11T11:26:44.485Z,63.51
2022-10-11T11:27:42.671Z,63.64
2022-10-11T11:28:42.714Z,62.92
2022-10-11T11:29:42.657Z,62.88
2022-10-11T11:30:42.643Z,61.82
2022-10-11T11:31:42.642Z,60.39
2022-10-11T11:32:45.732Z,61.21
2022-10-11T11:33:46.431Z,62.12
2022-10-11T11:34:43.593Z,62.61
2022-10-11T11:35:42.621Z,60.65
2022-10-11T11:36:42.575Z,60.76
2022-10-11T11:37:42.571Z,61.26
2022-10-11T11:38:42.554Z,61.76
2022-10-11T11:39:42.537Z,62.34
2022-10-11T11:40:42.525Z,61.10
2022-10-11T11:41:42.504Z,61.77
2022-10-11T11:42:42.506Z,62.48
2022-10-11T11:43:42.514Z,62.15
2022-10-11T11:44:42.474Z,62.77
2022-10-11T11:45:42.464Z,61.22
2022-10-11T11:46:42.464Z,61.04
2022-10-11T11:47:42.461Z,61.24
2022-10-11T11:48:42.446Z,61.41
2022-10-11T11:50:42.411Z,61.50
2022-10-11T11:51:42.408Z,60.76
2022-10-11T11:52:42.380Z,60.50
2022-10-11T11:53:42.376Z,60.05
2022-10-11T11:54:42.380Z,59.87
2022-10-11T11:55:42.357Z,61.26
2022-10-11T11:56:42.347Z,61.36
2022-10-11T11:57:42.328Z,60.37
2022-10-11T11:58:42.311Z,59.98
2022-10-11T11:59:42.324Z,59.66
2022-10-11T12:00:42.319Z,58.55
2022-10-11T12:01:42.317Z,58.99
2022-10-11T12:02:42.276Z,58.42
2022-10-11T12:03:42.257Z,58.90
2022-10-11T12:04:42.256Z,59.03
2022-10-11T12:05:42.228Z,58.56
2022-10-11T12:06:58.152Z,58.68
2022-10-11T12:07:43.215Z,58.41
2022-10-11T12:08:42.195Z,57.52
2022-10-11T12:09:42.178Z,56.97
2022-10-11T12:10:42.177Z,56.95
2022-10-11T12:11:42.185Z,57.72
2022-10-11T12:12:42.149Z,58.03
2022-10-11T12:13:42.137Z,58.13
2022-10-11T12:14:42.127Z,58.98
2022-10-11T12:15:42.113Z,58.89
2022-10-11T12:16:42.110Z,58.64
2022-10-11T12:17:42.112Z,58.04
2022-10-11T12:18:42.814Z,58.45
2022-10-11T12:19:42.072Z,59.04
2022-10-11T12:20:42.055Z,58.82
2022-10-11T12:21:42.173Z,58.99
2022-10-11T12:22:42.061Z,60.15
2022-10-11T12:23:42.031Z,58.60
2022-10-11T12:24:41.999Z,57.89
2022-10-11T12:25:41.996Z,57.76
2022-10-11T12:26:41.990Z,57.67
2022-10-11T12:27:41.975Z,57.97
2022-10-11T12:28:42.077Z,58.51
2022-10-11T12:29:41.950Z,58.83
2022-10-11T12:30:41.964Z,58.39
2022-10-11T12:31:45.976Z,58.39
2022-10-11T12:32:41.907Z,58.77
2022-10-11T12:33:41.923Z,57.53
2022-10-11T12:34:41.895Z,57.41
2022-10-11T12:35:41.885Z,58.13
2022-10-11T12:36:41.871Z,58.20
2022-10-11T12:37:41.861Z,58.27
2022-10-11T12:38:41.864Z,57.21
2022-10-11T12:39:41.840Z,57.05
2022-10-11T12:40:41.815Z,57.14
2022-10-11T12:41:41.819Z,57.20
2022-10-11T12:42:41.796Z,58.01
2022-10-11T12:43:41.804Z,58.63
2022-10-11T12:44:41.791Z,58.79
2022-10-11T12:45:41.771Z,58.32
2022-10-11T12:46:41.754Z,57.52
2022-10-11T12:47:41.753Z,57.65
2022-10-11T12:48:41.808Z,57.96
2022-10-11T12:49:41.733Z,58.47
2022-10-11T12:50:41.702Z,58.35
2022-10-11T12:51:41.702Z,56.51
2022-10-11T12:52:41.683Z,56.75
2022-10-11T12:53:41.713Z,57.81